createdAt,value
2022-07-26T00:01:37.051Z,12.40
2022-07-26T00:06:39.329Z,10.80
2022-07-26T00:11:41.124Z,10.90
2022-07-26T00:16:43.402Z,9.97
2022-07-26T00:21:45.357Z,8.75
2022-07-26T00:26:47.206Z,9.80
2022-07-26T00:31:49.162Z,9.48
2022-07-26T00:36:51.014Z,9.90
2022-07-26T00:41:52.862Z,7.97
2022-07-26T00:46:54.927Z,12.27
2022-07-26T00:51:56.639Z,8.07
2022-07-26T00:56:58.760Z,8.83
2022-07-26T01:02:01.500Z,9.88
2022-07-26T01:07:14.751Z,7.03
2022-07-26T01:12:18.212Z,8.68
2022-07-26T01:17:19.983Z,12.15
2022-07-26T01:22:21.871Z,8.32
2022-07-26T01:27:24.143Z,9.83
2022-07-26T01:32:25.925Z,8.60
2022-07-26T01:37:27.576Z,11.77
2022-07-26T01:42:29.310Z,9.27
2022-07-26T01:47:31.175Z,9.73
2022-07-26T01:52:33.255Z,6.87
2022-07-26T01:57:35.267Z,7.03
2022-07-26T02:02:37.228Z,9.75
2022-07-26T02:07:43.842Z,9.32
2022-07-26T02:12:46.394Z,6.97
2022-07-26T02:17:49.640Z,9.02
2022-07-26T02:22:51.351Z,10.17
2022-07-26T02:27:53.311Z,7.80
2022-07-26T02:32:55.014Z,7.70
2022-07-26T02:38:01.499Z,10.50
2022-07-26T02:43:05.068Z,12.23
2022-07-26T02:48:07.461Z,10.38
2022-07-26T02:53:09.178Z,8.45
2022-07-26T02:58:10.861Z,10.80
2022-07-26T03:03:14.218Z,12.87
2022-07-26T03:08:16.381Z,8.70
2022-07-26T03:13:18.091Z,9.82
2022-07-26T03:18:19.829Z,9.80
2022-07-26T03:23:21.539Z,8.47
2022-07-26T03:28:23.253Z,9.07
2022-07-26T03:33:25.321Z,8.35
2022-07-26T03:38:26.995Z,8.87
2022-07-26T03:43:29.100Z,10.07
2022-07-26T03:48:32.584Z,9.35
2022-07-26T03:53:34.598Z,9.13
2022-07-26T03:58:36.802Z,9.70
2022-07-26T04:03:40.024Z,11.00
2022-07-26T04:08:46.259Z,9.52
2022-07-26T04:13:47.897Z,8.73
2022-07-26T04:18:49.807Z,11.57
2022-07-26T04:23:51.943Z,9.93
2022-07-26T04:28:53.786Z,10.70
2022-07-26T04:33:55.449Z,10.43
2022-07-26T04:38:57.136Z,9.77
2022-07-26T04:43:58.999Z,12.47
2022-07-26T04:49:00.874Z,11.90
2022-07-26T04:54:02.692Z,9.33
2022-07-26T04:59:04.409Z,10.23
2022-07-26T05:04:06.482Z,9.90
2022-07-26T05:09:08.919Z,9.82
2022-07-26T05:14:10.962Z,13.40
2022-07-26T05:19:13.848Z,14.38
2022-07-26T05:29:17.158Z,7.90
2022-07-26T05:34:18.960Z,10.57
2022-07-26T05:39:20.877Z,6.93
2022-07-26T05:44:24.536Z,5.40
2022-07-26T05:49:28.286Z,8.05
2022-07-26T05:54:42.323Z,5.57
2022-07-26T05:59:44.063Z,9.40
2022-07-26T06:04:47.611Z,4.80
2022-07-26T06:09:49.656Z,4.90
2022-07-26T06:14:51.381Z,6.73
2022-07-26T06:19:53.103Z,7.93
2022-07-26T06:24:54.868Z,4.70
2022-07-26T06:29:56.547Z,5.17
2022-07-26T06:34:58.295Z,9.33
2022-07-26T06:40:00.028Z,6.03
2022-07-26T06:45:02.729Z,4.77
2022-07-26T06:50:05.121Z,6.75
2022-07-26T06:55:08.902Z,7.93
2022-07-26T07:00:14.842Z,7.22
2022-07-26T07:05:17.050Z,6.05
2022-07-26T07:10:19.358Z,5.18
2022-07-26T07:15:25.464Z,5.75
2022-07-26T07:20:28.351Z,7.23
2022-07-26T07:25:30.728Z,9.27
2022-07-26T07:30:32.934Z,5.97
2022-07-26T07:35:35.339Z,4.70
2022-07-26T07:40:37.814Z,10.77
2022-07-26T07:45:39.735Z,5.13
2022-07-26T07:50:41.467Z,5.57
2022-07-26T07:55:51.471Z,4.37
2022-07-26T08:00:57.127Z,8.38
2022-07-26T08:05:59.171Z,5.90
2022-07-26T08:11:00.968Z,4.72
2022-07-26T08:16:02.984Z,3.73
2022-07-26T08:21:08.226Z,5.70
2022-07-26T08:26:10.603Z,5.53
2022-07-26T08:31:12.431Z,5.47
2022-07-26T08:36:17.611Z,4.03
2022-07-26T08:41:19.422Z,6.35
2022-07-26T08:46:26.843Z,6.50
2022-07-26T08:51:31.319Z,3.78
2022-07-26T08:56:34.577Z,5.90
2022-07-26T09:01:50.616Z,4.65
2022-07-26T09:07:11.438Z,5.65
2022-07-26T09:12:18.665Z,11.20
2022-07-26T09:17:25.255Z,6.13
2022-07-26T09:22:27.071Z,4.28
2022-07-26T09:27:39.059Z,6.50
2022-07-26T09:32:40.826Z,5.25
2022-07-26T09:37:46.906Z,3.72
2022-07-26T09:42:57.730Z,5.18
2022-07-26T09:48:00.518Z,6.85
2022-07-26T09:53:13.096Z,5.40
2022-07-26T10:03:17.981Z,3.95
2022-07-26T10:08:20.125Z,4.65
2022-07-26T10:13:23.138Z,4.78
2022-07-26T10:18:37.987Z,3.50
2022-07-26T10:23:50.482Z,4.25
2022-07-26T10:28:52.288Z,7.75
2022-07-26T10:33:55.456Z,4.68
2022-07-26T10:39:03.966Z,6.00
2022-07-26T10:44:20.425Z,4.65
2022-07-26T10:49:29.293Z,5.40
2022-07-26T10:54:31.966Z,4.82
2022-07-26T10:59:54.690Z,4.47
2022-07-26T11:05:01.008Z,4.53
2022-07-26T11:10:02.905Z,4.95
2022-07-26T11:15:16.984Z,4.85
2022-07-26T11:20:29.547Z,4.78
2022-07-26T11:25:31.949Z,4.78
2022-07-26T11:30:33.778Z,4.68
2022-07-26T11:35:35.570Z,4.80
2022-07-26T11:40:43.350Z,5.97
2022-07-26T11:45:52.346Z,4.38
2022-07-26T11:51:09.342Z,7.82
2022-07-26T11:56:22.935Z,6.95
2022-07-26T12:01:27.640Z,5.68
2022-07-26T12:06:30.281Z,4.78
2022-07-26T12:11:41.627Z,4.90
2022-07-26T12:16:45.692Z,5.22
2022-07-26T12:21:52.621Z,5.25
2022-07-26T12:27:07.265Z,7.85
2022-07-26T12:32:12.749Z,5.55
2022-07-26T12:37:17.448Z,7.03
2022-07-26T12:42:34.330Z,5.68
2022-07-26T12:47:38.770Z,5.18
2022-07-26T12:52:41.671Z,3.40
2022-07-26T12:57:47.229Z,4.10
2022-07-26T13:02:49.360Z,6.45
2022-07-26T13:07:55.449Z,3.85
2022-07-26T13:12:57.244Z,8.40
2022-07-26T13:17:59.584Z,4.88
2022-07-26T13:23:02.500Z,7.43
2022-07-26T13:28:04.334Z,3.97
2022-07-26T13:38:11.722Z,6.22
2022-07-26T13:43:14.215Z,5.93
2022-07-26T13:48:15.896Z,3.65
2022-07-26T13:53:17.715Z,6.82
2022-07-26T13:58:21.691Z,4.65
2022-07-26T14:03:23.586Z,5.07
2022-07-26T14:08:25.463Z,4.32
2022-07-26T14:13:27.289Z,4.63
2022-07-26T14:18:28.999Z,3.58
2022-07-26T14:23:30.799Z,4.75
2022-07-26T14:28:32.538Z,4.88
2022-07-26T14:33:34.400Z,4.50
2022-07-26T14:38:36.962Z,4.30
2022-07-26T14:43:38.721Z,6.07
2022-07-26T14:48:53.942Z,5.65
2022-07-26T14:53:56.531Z,4.25
2022-07-26T14:58:58.269Z,4.30
2022-07-26T15:03:59.984Z,11.18
2022-07-26T15:09:01.888Z,5.45
2022-07-26T15:14:06.503Z,4.65
2022-07-26T15:19:08.373Z,4.97
2022-07-26T15:24:11.070Z,4.70
2022-07-26T15:29:13.080Z,3.33
2022-07-26T15:34:15.707Z,4.57
2022-07-26T15:39:18.390Z,8.48
2022-07-26T15:44:25.497Z,2.97
2022-07-26T15:49:27.917Z,6.80
2022-07-26T15:54:30.024Z,5.60
2022-07-26T16:04:33.858Z,4.70
2022-07-26T16:14:37.458Z,3.67
2022-07-26T16:19:39.147Z,4.70
2022-07-26T16:24:40.911Z,5.72
2022-07-26T16:29:42.714Z,3.65
2022-07-26T16:34:44.499Z,3.60
2022-07-26T16:39:46.324Z,3.40
2022-07-26T16:44:48.286Z,5.25
2022-07-26T16:49:50.174Z,4.20
2022-07-26T16:54:51.856Z,4.45
2022-07-26T16:59:53.562Z,3.65
2022-07-26T17:04:57.165Z,4.18
2022-07-26T17:09:58.863Z,3.05
2022-07-26T17:15:01.002Z,3.03
2022-07-26T17:25:07.063Z,3.25
2022-07-26T17:30:09.492Z,3.78
2022-07-26T17:35:11.341Z,4.50
2022-07-26T17:40:13.317Z,4.10
2022-07-26T17:45:15.522Z,4.10
2022-07-26T17:55:39.192Z,3.75
2022-07-26T18:00:41.715Z,3.55
2022-07-26T18:05:43.822Z,5.90
2022-07-26T18:10:50.887Z,3.42
2022-07-26T18:15:53.680Z,3.85
2022-07-26T18:20:55.497Z,4.28
2022-07-26T18:25:58.070Z,6.07
2022-07-26T18:30:59.813Z,3.53
2022-07-26T18:36:01.654Z,2.65
2022-07-26T18:41:03.746Z,5.28
2022-07-26T18:46:06.471Z,7.22
2022-07-26T18:51:08.426Z,4.40
2022-07-26T18:56:10.284Z,3.15
2022-07-26T19:01:12.340Z,5.70
2022-07-26T19:06:14.274Z,3.40
2022-07-26T19:11:16.006Z,3.65
2022-07-26T19:16:17.819Z,4.00
2022-07-26T19:21:21.027Z,4.47
2022-07-26T19:26:23.821Z,3.60
2022-07-26T19:31:25.961Z,4.20
2022-07-26T19:36:27.740Z,3.35
2022-07-26T19:41:29.963Z,3.80
2022-07-26T19:46:31.676Z,2.95
2022-07-26T19:51:33.510Z,5.40
2022-07-26T19:56:35.435Z,2.10
2022-07-26T20:01:37.135Z,3.13
2022-07-26T20:06:38.835Z,3.20
2022-07-26T20:11:41.245Z,5.03
2022-07-26T20:16:43.014Z,3.75
2022-07-26T20:21:44.938Z,3.47
2022-07-26T20:26:46.719Z,5.17
2022-07-26T20:31:48.562Z,3.50
2022-07-26T20:36:50.297Z,4.30
2022-07-26T20:41:52.029Z,4.77
2022-07-26T20:46:54.452Z,3.78
2022-07-26T20:51:56.682Z,3.00
2022-07-26T20:56:58.554Z,6.67
2022-07-26T21:02:02.154Z,4.57
2022-07-26T21:07:03.975Z,3.95
2022-07-26T21:12:05.957Z,3.50
2022-07-26T21:17:11.647Z,3.37
2022-07-26T21:22:14.160Z,3.92
2022-07-26T21:27:15.866Z,4.17
2022-07-26T21:32:17.611Z,4.03
2022-07-26T21:37:19.306Z,3.77
2022-07-26T21:42:20.996Z,6.32
2022-07-26T21:47:28.986Z,2.90
2022-07-26T21:52:30.693Z,4.50
2022-07-26T21:57:32.469Z,5.13
2022-07-26T22:02:34.927Z,3.70
2022-07-26T22:07:36.713Z,3.27
2022-07-26T22:12:38.535Z,4.43
2022-07-26T22:17:40.413Z,6.15
2022-07-26T22:22:42.073Z,3.30
2022-07-26T22:27:43.777Z,3.53
2022-07-26T22:32:45.492Z,4.43
2022-07-26T22:37:47.174Z,4.35
2022-07-26T22:42:49.945Z,7.15
2022-07-26T22:47:55.705Z,3.78
2022-07-26T22:53:00.922Z,7.05
2022-07-26T22:58:02.743Z,5.18
2022-07-26T23:03:05.058Z,5.40
2022-07-26T23:08:44.219Z,6.15
2022-07-26T23:13:35.462Z,5.13
2022-07-26T23:18:37.137Z,4.68
2022-07-26T23:23:38.902Z,3.53
2022-07-26T23:28:40.878Z,4.03
2022-07-26T23:33:51.821Z,3.93
2022-07-26T23:38:56.589Z,6.93
2022-07-26T23:43:58.327Z,4.57
2022-07-26T23:49:00.204Z,5.43
2022-07-26T23:59:04.795Z,4.80
